Time;durP1;ratioP1;P1;durP2;ratioP2;P2;SDS_P1;SDS_P2;PMS_P1;PMS_P2;Temp;Humidity;BMP_temperature;BMP_pressure;BME280_temperature;BME280_humidity;BME280_pressure;Samples;Min_cycle;Max_cycle;Signal;HPM_P1;HPM_P2
2023/07/14 00:01:47;;;;;;;16.30;8.80;;;;;;;24.20;63.57;94828.53;6125361;23;20461;-69
2023/07/14 00:04:21;;;;;;;11.45;8.30;;;;;;;24.15;64.00;94822.66;6099847;23;20195;-69
2023/07/14 00:06:51;;;;;;;10.40;7.72;;;;;;;24.12;64.26;94821.53;6101286;23;20172;-69
2023/07/14 00:09:24;;;;;;;9.50;8.20;;;;;;;24.12;64.27;94827.16;6100101;23;20231;-69
2023/07/14 00:11:54;;;;;;;9.50;7.90;;;;;;;24.13;63.88;94830.75;6100646;23;20199;-69
2023/07/14 00:14:25;;;;;;;8.80;7.70;;;;;;;24.13;64.47;94823.09;6099720;23;20566;-69
2023/07/14 00:16:53;;;;;;;10.07;8.00;;;;;;;24.14;63.98;94819.03;6100172;23;20204;-69
2023/07/14 00:19:22;;;;;;;8.48;7.60;;;;;;;24.18;63.84;94807.66;6100705;23;20453;-69
2023/07/14 00:21:53;;;;;;;9.60;8.10;;;;;;;24.18;64.01;94808.47;6101063;23;20164;-69
2023/07/14 00:24:23;;;;;;;8.98;7.63;;;;;;;24.07;64.48;94812.81;6110519;23;20189;-69
2023/07/14 00:26:55;;;;;;;10.23;7.63;;;;;;;23.98;64.50;94805.03;6099939;23;20484;-69
2023/07/14 00:29:38;;;;;;;9.45;7.78;;;;;;;23.91;64.86;94806.03;6099895;23;20168;-69
2023/07/14 00:32:12;;;;;;;8.73;7.35;;;;;;;23.84;64.54;94800.59;6101154;23;20208;-69
2023/07/14 00:34:40;;;;;;;9.50;8.15;;;;;;;23.80;65.05;94802.72;6124391;23;20263;-69
2023/07/14 00:37:12;;;;;;;12.10;8.05;;;;;;;23.81;65.12;94811.97;6101030;23;20168;-69
2023/07/14 00:39:42;;;;;;;10.70;8.07;;;;;;;23.80;65.08;94819.63;6100912;23;20196;-69
2023/07/14 00:42:13;;;;;;;10.48;8.35;;;;;;;23.80;65.25;94822.44;6100929;23;20175;-69
2023/07/14 00:44:41;;;;;;;8.68;7.78;;;;;;;23.83;65.39;94837.66;6099799;23;20185;-69
2023/07/14 00:47:18;;;;;;;10.00;7.63;;;;;;;23.83;64.56;94852.53;6099725;23;20180;-69
2023/07/14 00:49:48;;;;;;;8.80;7.95;;;;;;;23.88;64.09;94860.41;6099470;23;20215;-69
2023/07/14 00:52:21;;;;;;;8.52;7.47;;;;;;;23.90;63.79;94862.81;6099717;23;20605;-69
2023/07/14 00:54:52;;;;;;;9.88;7.85;;;;;;;23.93;63.52;94862.72;6099804;23;20180;-69
2023/07/14 00:57:23;;;;;;;10.15;8.27;;;;;;;23.94;63.60;94863.50;6100317;23;20172;-69
2023/07/14 00:59:59;;;;;;;11.73;8.63;;;;;;;23.95;63.38;94876.34;6099349;23;20187;-69
2023/07/14 01:02:28;;;;;;;9.32;7.70;;;;;;;23.91;62.62;94893.34;6100719;23;20223;-69
2023/07/14 01:05:00;;;;;;;9.32;8.25;;;;;;;23.89;62.76;94884.53;6099685;23;20196;-69
2023/07/14 01:07:33;;;;;;;9.25;8.38;;;;;;;23.89;63.28;94889.38;6099544;23;20192;-69
2023/07/14 01:10:03;;;;;;;9.25;8.25;;;;;;;23.86;63.31;94895.91;6098689;23;20578;-69
2023/07/14 01:12:33;;;;;;;9.15;8.18;;;;;;;23.81;63.38;94900.03;6100063;23;20218;-69
2023/07/14 01:15:01;;;;;;;8.48;7.68;;;;;;;23.77;63.16;94894.50;6099574;23;20175;-69
2023/07/14 01:17:31;;;;;;;11.00;8.27;;;;;;;23.79;63.28;94894.06;6100471;23;20160;-69
2023/07/14 01:20:01;;;;;;;9.18;8.27;;;;;;;23.81;62.73;94885.97;6100198;23;20565;-69
2023/07/14 01:22:37;;;;;;;11.07;8.60;;;;;;;23.80;62.28;94881.56;6099195;23;20184;-69
2023/07/14 01:25:13;;;;;;;10.88;8.63;;;;;;;23.78;62.17;94869.94;6109867;23;20672;-69
2023/07/14 01:27:46;;;;;;;9.88;8.55;;;;;;;23.78;62.07;94867.13;6100142;23;20468;-69
2023/07/14 01:30:14;;;;;;;8.90;8.10;;;;;;;23.78;62.11;94855.88;6100243;23;20249;-69
2023/07/14 01:32:45;;;;;;;9.93;8.07;;;;;;;23.77;63.14;94863.53;6100494;23;20176;-69
2023/07/14 01:35:14;;;;;;;9.02;8.13;;;;;;;23.76;63.14;94853.50;6100309;23;20161;-69
2023/07/14 01:37:42;;;;;;;8.88;8.00;;;;;;;23.78;62.65;94842.59;6100828;23;20199;-69
2023/07/14 01:40:13;;;;;;;8.85;8.02;;;;;;;23.78;63.28;94841.78;6100423;23;20216;-69
2023/07/14 01:42:45;;;;;;;11.25;8.88;;;;;;;23.74;64.25;94838.28;6100239;23;20235;-69
2023/07/14 01:45:16;;;;;;;8.90;8.05;;;;;;;23.60;64.18;94838.66;6099169;23;20173;-69
2023/07/14 01:47:46;;;;;;;9.15;8.25;;;;;;;23.50;64.73;94834.91;6100025;23;20171;-69
2023/07/14 01:50:18;;;;;;;10.55;8.15;;;;;;;23.47;64.86;94833.75;6099411;23;20173;-69
2023/07/14 01:52:47;;;;;;;7.63;6.93;;;;;;;23.48;61.43;94838.13;6099575;23;20192;-69
2023/07/14 01:55:18;;;;;;;9.30;6.78;;;;;;;23.71;58.97;94840.00;6100167;23;20161;-69
2023/07/14 01:57:52;;;;;;;7.80;7.00;;;;;;;23.97;57.69;94851.34;6123941;23;20173;-69
2023/07/14 02:00:20;;;;;;;10.10;7.60;;;;;;;24.19;56.98;94851.53;6099452;23;20180;-69
2023/07/14 02:02:52;;;;;;;8.40;7.50;;;;;;;24.33;57.20;94870.03;6100185;23;20157;-69
2023/07/14 02:05:26;;;;;;;7.75;7.05;;;;;;;24.38;58.16;94880.75;6099932;23;20165;-69
2023/07/14 02:07:58;;;;;;;11.45;7.43;;;;;;;24.32;58.06;94888.97;6100201;23;20239;-69
2023/07/14 02:10:26;;;;;;;8.68;7.80;;;;;;;24.27;58.49;94895.16;6099262;23;20224;-69
2023/07/14 02:13:00;;;;;;;8.80;7.90;;;;;;;24.21;59.02;94894.13;6098817;23;20180;-69
2023/07/14 02:15:31;;;;;;;7.70;7.00;;;;;;;24.15;58.63;94910.78;6098732;23;20177;-69
2023/07/14 02:18:00;;;;;;;8.93;7.88;;;;;;;24.12;58.54;94894.78;6100007;23;20184;-69
2023/07/14 02:20:31;;;;;;;13.00;8.43;;;;;;;24.12;59.28;94913.72;6099843;23;20157;-69
2023/07/14 02:23:01;;;;;;;8.68;7.82;;;;;;;24.07;59.11;94917.06;6099748;23;20188;-69
2023/07/14 02:25:32;;;;;;;11.65;7.68;;;;;;;24.00;59.20;94926.50;6098743;23;20227;-69
2023/07/14 02:28:05;;;;;;;8.32;7.38;;;;;;;23.93;59.85;94933.13;6098890;23;20195;-69
2023/07/14 02:30:34;;;;;;;8.80;7.90;;;;;;;23.91;59.78;94941.22;6099603;23;20268;-69
2023/07/14 02:33:07;;;;;;;7.93;7.10;;;;;;;23.88;60.01;94947.72;6098848;23;20168;-69
2023/07/14 02:35:43;;;;;;;9.95;7.65;;;;;;;23.89;60.02;94954.94;6099770;23;20172;-69
2023/07/14 02:38:14;;;;;;;9.50;7.40;;;;;;;23.91;60.02;94960.16;6109358;23;20157;-69
2023/07/14 02:40:46;;;;;;;8.65;7.50;;;;;;;23.94;59.61;94971.31;6098633;23;20172;-69
2023/07/14 02:43:18;;;;;;;8.15;7.25;;;;;;;23.97;59.17;94961.19;6098517;23;20177;-69
2023/07/14 02:45:55;;;;;;;9.65;7.32;;;;;;;24.02;59.03;94969.88;6099732;23;20177;-69
2023/07/14 02:48:26;;;;;;;10.48;7.82;;;;;;;24.06;59.19;94969.00;6098840;23;20172;-69
2023/07/14 02:50:54;;;;;;;8.63;7.57;;;;;;;24.09;59.27;94974.53;6109299;23;20244;-69
2023/07/14 02:53:22;;;;;;;7.55;6.78;;;;;;;24.11;58.92;94968.47;6098609;23;20173;-69
2023/07/14 02:55:51;;;;;;;7.53;6.82;;;;;;;24.13;58.93;94966.78;6099934;23;20219;-69
2023/07/14 02:58:20;;;;;;;8.80;7.57;;;;;;;24.16;58.51;94968.72;6098755;23;20180;-69
2023/07/14 03:00:48;;;;;;;8.80;7.25;;;;;;;24.18;59.05;94971.09;6098783;23;20180;-69
2023/07/14 03:03:24;;;;;;;8.57;7.38;;;;;;;24.08;60.53;94966.56;6098381;23;20479;-69
2023/07/14 03:05:52;;;;;;;9.18;7.78;;;;;;;23.98;60.65;94969.19;6098639;23;20187;-69
2023/07/14 03:08:20;;;;;;;8.00;7.20;;;;;;;23.94;61.01;94962.88;6098550;23;20175;-69
2023/07/14 03:10:58;;;;;;;9.43;7.97;;;;;;;23.91;61.50;94971.41;6098856;23;20173;-69
2023/07/14 03:13:28;;;;;;;9.13;7.55;;;;;;;23.85;61.81;94968.31;6098472;23;20235;-69
2023/07/14 03:15:57;;;;;;;9.05;8.15;;;;;;;23.83;62.15;94972.84;6098399;23;20235;-69
2023/07/14 03:18:25;;;;;;;8.55;7.75;;;;;;;23.77;62.14;94976.16;6098524;23;20180;-69
2023/07/14 03:20:59;;;;;;;9.45;7.45;;;;;;;23.78;62.20;94983.41;6098751;23;20171;-69
2023/07/14 03:23:27;;;;;;;9.00;7.40;;;;;;;23.87;61.14;94984.78;6109129;23;20192;-69
2023/07/14 03:25:55;;;;;;;8.93;8.02;;;;;;;23.94;60.68;94985.41;6099512;23;20177;-69
2023/07/14 03:28:23;;;;;;;9.15;7.20;;;;;;;24.01;58.99;94990.06;6099575;23;20180;-69
2023/07/14 03:30:52;;;;;;;8.30;7.50;;;;;;;24.10;52.40;95007.09;6099000;23;20259;-69
2023/07/14 03:33:20;;;;;;;11.27;7.43;;;;;;;24.32;47.56;95006.53;6099239;23;20231;-69
2023/07/14 03:35:48;;;;;;;10.80;7.75;;;;;;;24.49;47.84;95000.44;6101841;23;20172;-69
2023/07/14 03:38:17;;;;;;;11.75;7.47;;;;;;;24.65;45.49;95004.44;6101277;23;20164;-69
2023/07/14 03:40:45;;;;;;;8.35;7.20;;;;;;;24.77;46.05;95003.72;6111047;23;20164;-69
2023/07/14 03:43:13;;;;;;;9.45;7.18;;;;;;;24.86;43.80;95000.22;6110849;23;20161;-69
2023/07/14 03:45:41;;;;;;;9.45;7.55;;;;;;;24.94;44.18;94998.75;6124697;23;20462;-69
2023/07/14 03:48:11;;;;;;;8.65;7.25;;;;;;;24.98;43.00;95003.09;6100464;23;20176;-69
2023/07/14 03:50:43;;;;;;;9.13;7.32;;;;;;;25.06;42.26;95003.66;6110955;23;20180;-69
2023/07/14 03:53:11;;;;;;;12.68;7.90;;;;;;;25.09;42.81;95008.41;6110769;23;20261;-69
2023/07/14 03:55:42;;;;;;;9.25;7.65;;;;;;;25.10;42.45;95009.19;6101123;23;20168;-69
2023/07/14 03:58:10;;;;;;;9.32;7.88;;;;;;;25.11;42.73;95008.75;6101494;23;20161;-69
2023/07/14 04:00:38;;;;;;;12.13;8.07;;;;;;;25.12;42.10;95010.34;6101412;23;20173;-69
2023/07/14 04:03:07;;;;;;;11.35;8.30;;;;;;;25.12;41.89;95021.63;6110727;23;20235;-69
2023/07/14 04:05:39;;;;;;;9.85;8.18;;;;;;;25.14;42.88;95021.97;6101153;23;20197;-69
2023/07/14 04:08:07;;;;;;;10.00;8.02;;;;;;;25.14;43.63;95029.66;6101278;23;20186;-69
2023/07/14 04:10:35;;;;;;;10.35;8.48;;;;;;;25.08;45.46;95037.84;6101227;23;20240;-69
2023/07/14 04:13:03;;;;;;;10.90;8.40;;;;;;;25.00;46.57;95044.16;6100304;23;20177;-69
2023/07/14 04:15:30;;;;;;;10.40;8.07;;;;;;;24.91;46.54;95054.06;6101150;23;20157;-69
2023/07/14 04:17:58;;;;;;;7.93;6.97;;;;;;;24.84;46.94;95067.59;6100846;23;20171;-69
2023/07/14 04:20:26;;;;;;;10.15;7.90;;;;;;;24.80;46.88;95069.69;6110690;23;20172;-69
2023/07/14 04:22:57;;;;;;;11.00;8.00;;;;;;;24.77;46.88;95079.06;6100176;23;20180;-69
2023/07/14 04:25:24;;;;;;;11.40;8.30;;;;;;;24.73;47.94;95076.34;6100411;23;20605;-69
2023/07/14 04:27:53;;;;;;;9.68;7.40;;;;;;;24.69;47.77;95087.72;6101127;23;20168;-69
2023/07/14 04:30:21;;;;;;;9.63;8.15;;;;;;;24.66;48.81;95090.63;6110181;23;20228;-69
2023/07/14 04:32:50;;;;;;;10.00;7.72;;;;;;;24.62;50.12;95098.38;6101099;23;20161;-69
2023/07/14 04:35:17;;;;;;;10.75;8.82;;;;;;;24.59;50.22;95099.28;6110342;23;20172;-69
2023/07/14 04:37:44;;;;;;;9.90;7.88;;;;;;;24.59;50.73;95110.56;6104657;23;20181;-69
2023/07/14 04:40:14;;;;;;;11.73;8.30;;;;;;;24.61;51.86;95117.31;6100120;23;20176;-69
2023/07/14 04:42:42;;;;;;;10.60;8.45;;;;;;;24.61;52.32;95117.31;6099553;23;20251;-69
2023/07/14 04:45:11;;;;;;;11.00;8.32;;;;;;;24.61;52.71;95120.16;6099771;23;20196;-69
2023/07/14 04:47:39;;;;;;;11.43;8.25;;;;;;;24.61;53.27;95131.44;6099907;23;20164;-69
2023/07/14 04:50:08;;;;;;;11.40;8.80;;;;;;;24.59;54.07;95139.56;6100877;23;20168;-69
2023/07/14 04:52:35;;;;;;;10.95;8.25;;;;;;;24.59;54.74;95141.59;6100888;23;20160;-69
2023/07/14 04:55:06;;;;;;;11.35;8.68;;;;;;;24.55;55.62;95143.69;6099693;23;20176;-69
2023/07/14 04:57:36;;;;;;;11.00;8.68;;;;;;;24.50;55.80;95145.81;6100421;23;20569;-69
2023/07/14 05:00:06;;;;;;;12.40;8.40;;;;;;;24.48;56.22;95139.81;6101059;23;20164;-69
2023/07/14 05:02:34;;;;;;;10.52;8.38;;;;;;;24.46;57.02;95142.28;6100716;23;20172;-69
2023/07/14 05:05:13;;;;;;;12.50;8.93;;;;;;;24.46;57.89;95142.28;6099537;23;20260;-69
2023/07/14 05:07:41;;;;;;;9.98;8.65;;;;;;;24.43;56.93;95143.16;6099440;23;20180;-69
2023/07/14 05:10:13;;;;;;;13.98;9.07;;;;;;;24.44;56.56;95141.16;6124542;23;20180;-69
2023/07/14 05:12:43;;;;;;;12.93;8.73;;;;;;;24.46;56.12;95147.13;6099428;23;20180;-69
2023/07/14 05:15:11;;;;;;;10.70;8.50;;;;;;;24.47;56.40;95149.53;6100174;23;20177;-69
2023/07/14 05:17:41;;;;;;;11.20;8.55;;;;;;;24.48;56.67;95147.50;6099435;23;20196;-69
2023/07/14 05:20:12;;;;;;;11.07;8.10;;;;;;;24.48;57.18;95153.91;6099368;23;20175;-69
2023/07/14 05:22:42;;;;;;;10.52;8.18;;;;;;;24.47;57.52;95151.53;6100741;23;20224;-69
2023/07/14 05:25:10;;;;;;;11.27;8.20;;;;;;;24.46;57.36;95152.78;6100381;23;20181;-69
2023/07/14 05:27:38;;;;;;;10.88;8.80;;;;;;;24.44;57.92;95150.41;6098137;23;20184;-69
2023/07/14 05:30:09;;;;;;;11.85;9.05;;;;;;;24.41;57.80;95161.78;6100452;23;20183;-69
2023/07/14 05:32:39;;;;;;;10.05;8.63;;;;;;;24.40;56.73;95154.53;6099667;23;20209;-69
2023/07/14 05:35:08;;;;;;;11.90;8.02;;;;;;;24.41;56.25;95156.13;6098994;23;20176;-69
2023/07/14 05:37:35;;;;;;;10.77;8.30;;;;;;;24.44;57.06;95160.91;6099320;23;20184;-69
2023/07/14 05:40:06;;;;;;;9.63;8.68;;;;;;;24.45;57.26;95154.81;6099702;23;20172;-69
2023/07/14 05:42:33;;;;;;;9.95;8.00;;;;;;;24.47;57.90;95159.97;6099937;23;20629;-69
2023/07/14 05:45:00;;;;;;;10.35;8.40;;;;;;;24.48;58.90;95156.75;6099304;23;20189;-69
2023/07/14 05:47:30;;;;;;;10.05;8.60;;;;;;;24.53;58.80;95154.63;6098740;23;20187;-69
2023/07/14 05:49:58;;;;;;;9.23;8.38;;;;;;;24.56;59.56;95156.56;6100324;23;20176;-69
2023/07/14 05:52:26;;;;;;;9.50;7.93;;;;;;;24.57;59.22;95161.75;6100220;23;20169;-69
2023/07/14 05:54:52;;;;;;;10.85;8.23;;;;;;;24.59;60.03;95162.09;6099865;23;20161;-69
2023/07/14 05:57:21;;;;;;;11.23;8.30;;;;;;;24.59;60.49;95161.31;6109256;23;20181;-69
2023/07/14 05:59:49;;;;;;;9.68;7.80;;;;;;;24.61;60.55;95161.66;6099768;23;20207;-69
2023/07/14 06:02:19;;;;;;;9.98;8.70;;;;;;;24.61;61.86;95162.44;6099474;23;20172;-69
2023/07/14 06:04:50;;;;;;;9.77;8.70;;;;;;;24.60;61.67;95157.25;6098953;23;20204;-69
2023/07/14 06:07:18;;;;;;;10.93;8.10;;;;;;;24.59;61.67;95152.88;6109461;23;20558;-69
2023/07/14 06:09:46;;;;;;;10.32;8.70;;;;;;;24.62;61.64;95158.41;6108828;23;20172;-69
2023/07/14 06:12:14;;;;;;;9.40;7.95;;;;;;;24.64;61.14;95155.91;6098518;23;20219;-69
2023/07/14 06:14:42;;;;;;;9.65;8.73;;;;;;;24.66;60.51;95153.47;6123367;23;20172;-69
2023/07/14 06:17:11;;;;;;;10.70;8.45;;;;;;;24.67;60.38;95154.25;6098856;23;20176;-69
2023/07/14 06:19:39;;;;;;;10.00;8.43;;;;;;;24.68;60.71;95148.16;6109495;23;20171;-69
2023/07/14 06:22:07;;;;;;;10.65;8.98;;;;;;;24.71;60.73;95146.50;6123266;23;20235;-69
2023/07/14 06:24:38;;;;;;;10.75;8.45;;;;;;;24.71;60.98;95146.50;6123498;23;20176;-69
2023/07/14 06:27:07;;;;;;;11.10;8.73;;;;;;;24.73;60.99;95144.03;6102517;23;20204;-69
2023/07/14 06:29:37;;;;;;;9.95;8.80;;;;;;;24.74;61.20;95149.22;6099882;23;20240;-69
2023/07/14 06:32:06;;;;;;;10.38;8.23;;;;;;;24.77;61.22;95146.75;6109225;23;20200;-69
2023/07/14 06:34:34;;;;;;;12.13;8.95;;;;;;;24.78;60.59;95148.34;6098015;23;20203;-69
2023/07/14 06:37:02;;;;;;;10.25;8.32;;;;;;;24.80;60.31;95143.03;6098845;23;20176;-69
2023/07/14 06:39:32;;;;;;;13.82;9.32;;;;;;;24.82;60.56;95143.38;6109111;23;20189;-69
2023/07/14 06:42:03;;;;;;;10.50;9.27;;;;;;;24.85;60.76;95148.13;6099736;23;20176;-69
2023/07/14 06:44:31;;;;;;;11.52;9.02;;;;;;;24.86;61.10;95146.91;6099653;23;20224;-69
2023/07/14 06:46:59;;;;;;;12.65;9.65;;;;;;;24.86;61.61;95152.53;6109336;23;20160;-69
2023/07/14 06:49:27;;;;;;;11.43;9.02;;;;;;;24.90;61.46;95147.59;6099704;23;20172;-69
2023/07/14 06:51:55;;;;;;;12.38;9.48;;;;;;;24.92;60.86;95153.59;6123845;23;20451;-69
2023/07/14 06:54:23;;;;;;;10.13;9.10;;;;;;;24.93;60.86;95143.88;6099851;23;20161;-69
2023/07/14 06:56:54;;;;;;;10.93;9.23;;;;;;;24.95;61.68;95139.38;6098514;23;20188;-69
2023/07/14 06:59:22;;;;;;;9.95;8.90;;;;;;;24.96;60.77;95143.78;6098483;23;20180;-69
2023/07/14 07:01:50;;;;;;;10.00;9.10;;;;;;;24.97;60.79;95148.19;6098512;23;20168;-69
2023/07/14 07:04:18;;;;;;;13.55;9.70;;;;;;;25.01;61.43;95147.28;6123102;23;20173;-69
2023/07/14 07:06:47;;;;;;;10.57;9.57;;;;;;;25.04;60.72;95150.03;6099635;23;20188;-69
2023/07/14 07:09:17;;;;;;;12.65;9.45;;;;;;;25.05;60.98;95148.78;6097927;23;20174;-69
2023/07/14 07:11:46;;;;;;;9.75;8.85;;;;;;;25.07;60.34;95145.53;6099683;23;20216;-69
2023/07/14 07:14:18;;;;;;;11.70;9.60;;;;;;;25.06;60.60;95153.19;6109648;23;20243;-69
2023/07/14 07:16:46;;;;;;;11.90;9.40;;;;;;;25.08;60.93;95153.53;6099706;23;20192;-69
2023/07/14 07:19:16;;;;;;;12.30;10.05;;;;;;;25.13;60.54;95149.44;6098529;23;20169;-69
2023/07/14 07:21:44;;;;;;;11.43;10.27;;;;;;;25.13;60.43;95150.22;6122628;23;20640;-69
2023/07/14 07:24:13;;;;;;;11.60;8.65;;;;;;;25.16;60.23;95151.31;6099749;23;20168;-69
2023/07/14 07:26:40;;;;;;;10.82;9.43;;;;;;;25.18;60.06;95144.00;6107628;23;20207;-69
2023/07/14 07:29:08;;;;;;;11.40;10.20;;;;;;;25.23;60.26;95147.50;6098265;23;20172;-69
2023/07/14 07:31:37;;;;;;;12.93;9.60;;;;;;;25.23;60.44;95142.66;6099165;23;20263;-69
2023/07/14 07:34:05;;;;;;;11.80;10.45;;;;;;;25.23;59.85;95141.88;6098251;23;20176;-69
2023/07/14 07:36:33;;;;;;;10.35;9.45;;;;;;;25.21;60.22;95151.59;6099606;23;20196;-69
2023/07/14 07:39:01;;;;;;;11.80;8.68;;;;;;;25.21;60.36;95142.34;6098503;23;20235;-69
2023/07/14 07:41:32;;;;;;;11.05;9.90;;;;;;;25.21;60.20;95143.13;6099062;23;20165;-69
2023/07/14 07:43:59;;;;;;;11.30;10.10;;;;;;;25.24;61.45;95132.97;6122732;23;20201;-69
2023/07/14 07:46:27;;;;;;;10.68;9.65;;;;;;;25.31;60.76;95134.78;6098291;23;20192;-69
2023/07/14 07:48:56;;;;;;;10.45;9.23;;;;;;;25.37;61.12;95133.78;6106868;23;20177;-69
2023/07/14 07:51:23;;;;;;;10.07;8.77;;;;;;;25.39;60.65;95134.13;6108795;23;20153;-69
2023/07/14 07:53:51;;;;;;;10.02;9.07;;;;;;;25.41;60.53;95130.84;6098731;23;20172;-69
2023/07/14 07:56:18;;;;;;;10.60;9.20;;;;;;;25.45;60.40;95118.22;6098358;23;20531;-69
2023/07/14 07:58:46;;;;;;;10.90;9.48;;;;;;;25.48;60.49;95122.16;6097921;23;20193;-69
2023/07/14 08:01:19;;;;;;;11.00;9.02;;;;;;;25.49;60.30;95115.31;6099745;23;20520;-69
2023/07/14 08:03:47;;;;;;;10.27;9.18;;;;;;;25.52;60.35;95122.06;6099046;23;20176;-69
2023/07/14 08:06:21;;;;;;;9.60;8.43;;;;;;;25.59;60.11;95122.63;6097700;23;20660;-69
2023/07/14 08:08:49;;;;;;;11.57;8.57;;;;;;;25.67;59.23;95114.72;6099414;23;20168;-69
2023/07/14 08:11:20;;;;;;;11.93;9.05;;;;;;;25.69;58.43;95112.25;6099254;23;20165;-69
2023/07/14 08:13:48;;;;;;;10.95;8.68;;;;;;;25.72;59.61;95110.59;6098528;23;20169;-69
2023/07/14 08:16:17;;;;;;;11.93;8.43;;;;;;;25.76;59.32;95109.22;6098550;23;20172;-69
2023/07/14 08:18:45;;;;;;;10.93;9.88;;;;;;;25.79;59.48;95099.09;6098596;23;20596;-69
2023/07/14 08:21:13;;;;;;;9.98;8.63;;;;;;;25.83;59.51;95102.59;6099560;23;20180;-69
2023/07/14 08:23:46;;;;;;;11.77;9.27;;;;;;;25.86;59.51;95099.66;6100028;23;20224;-69
2023/07/14 08:26:17;;;;;;;10.40;9.40;;;;;;;25.89;59.78;95101.56;6099994;23;20204;-69
2023/07/14 08:28:45;;;;;;;11.15;9.93;;;;;;;25.99;58.72;95105.28;6110455;23;20177;-69
2023/07/14 08:31:14;;;;;;;12.90;8.90;;;;;;;26.06;58.13;95096.56;6100698;23;20267;-69
2023/07/14 08:33:43;;;;;;;9.05;8.18;;;;;;;26.09;58.11;95106.19;6110385;23;20169;-69
2023/07/14 08:36:15;;;;;;;10.23;9.18;;;;;;;26.13;58.30;95099.16;6099927;23;20172;-69
2023/07/14 08:38:45;;;;;;;11.13;9.55;;;;;;;26.20;59.52;95094.53;6101036;23;20188;-69
2023/07/14 08:41:21;;;;;;;12.40;9.30;;;;;;;26.22;58.03;95092.84;6099996;23;20236;-69
2023/07/14 08:44:05;;;;;;;10.80;8.88;;;;;;;26.22;57.62;95092.03;6110425;23;20156;-69
2023/07/14 08:46:41;;;;;;;11.10;8.80;;;;;;;26.27;58.56;95097.13;6110511;23;20200;-69
2023/07/14 08:49:20;;;;;;;11.23;8.73;;;;;;;26.36;59.36;95089.53;6100528;23;20160;-69
2023/07/14 08:51:52;;;;;;;12.00;9.20;;;;;;;26.49;58.82;95094.41;6099498;23;20168;-69
2023/07/14 08:54:27;;;;;;;11.52;9.07;;;;;;;26.66;58.23;95087.34;6100033;23;20177;-69
2023/07/14 08:56:56;;;;;;;10.55;9.45;;;;;;;26.77;58.64;95086.97;6100767;23;20156;-69
2023/07/14 08:59:32;;;;;;;10.82;8.98;;;;;;;26.86;58.23;95087.00;6099390;23;20180;-69
2023/07/14 09:02:01;;;;;;;10.38;9.05;;;;;;;26.93;57.39;95085.97;6100070;23;20168;-69
2023/07/14 09:04:33;;;;;;;12.18;10.07;;;;;;;27.01;56.45;95085.25;6100692;23;20182;-69
2023/07/14 09:07:02;;;;;;;12.82;10.23;;;;;;;27.03;57.00;95082.75;6123877;23;20239;-69
2023/07/14 09:09:34;;;;;;;11.35;10.15;;;;;;;27.13;58.35;95077.22;6100632;23;20184;-69
2023/07/14 09:12:10;;;;;;;12.27;9.80;;;;;;;27.22;56.43;95075.22;6100060;23;20168;-69
2023/07/14 09:14:57;;;;;;;10.38;9.15;;;;;;;27.28;56.26;95067.72;6099969;23;20476;-69
2023/07/14 09:17:32;;;;;;;10.82;8.88;;;;;;;27.38;53.94;95073.41;6099094;23;20588;-69
2023/07/14 09:20:34;;;;;;;10.70;9.60;;;;;;;27.44;53.86;95066.69;6110015;23;20176;-69
2023/07/14 09:23:12;;;;;;;11.23;9.15;;;;;;;27.57;52.65;95061.72;6074617;23;20180;-69
2023/07/14 09:25:51;;;;;;;10.32;9.30;;;;;;;27.66;53.80;95055.31;6100427;23;20196;-69
2023/07/14 09:28:24;;;;;;;9.93;8.93;;;;;;;27.76;53.60;95064.69;6100132;23;20208;-69
2023/07/14 09:30:55;;;;;;;10.07;9.07;;;;;;;27.92;53.93;95060.78;6099934;23;20722;-69
2023/07/14 09:33:23;;;;;;;10.50;9.40;;;;;;;28.00;52.27;95053.59;6099411;23;20180;-69
2023/07/14 09:35:51;;;;;;;11.65;9.73;;;;;;;27.94;51.21;95047.75;6100651;23;20233;-69
2023/07/14 09:38:23;;;;;;;10.63;9.45;;;;;;;27.92;51.68;95055.13;6110190;23;20172;-69
2023/07/14 09:40:58;;;;;;;10.40;9.02;;;;;;;27.98;49.89;95045.53;6109748;23;20168;-69
2023/07/14 09:43:26;;;;;;;13.82;9.50;;;;;;;28.06;51.59;95051.72;6109718;23;20241;-69
2023/07/14 09:45:55;;;;;;;10.63;9.23;;;;;;;28.16;53.24;95050.47;6099839;23;20180;-69
2023/07/14 09:48:26;;;;;;;10.15;9.13;;;;;;;28.18;50.54;95050.81;6109617;23;20429;-69
2023/07/14 09:50:59;;;;;;;9.80;8.88;;;;;;;28.17;49.43;95043.53;6099899;23;20550;-69
2023/07/14 09:53:28;;;;;;;9.95;8.90;;;;;;;28.23;51.36;95043.72;6100153;23;20184;-69
2023/07/14 09:56:05;;;;;;;13.45;9.80;;;;;;;28.42;52.60;95041.75;6099866;23;20467;-69
2023/07/14 09:58:36;;;;;;;13.85;9.68;;;;;;;28.63;53.69;95045.69;6099299;23;20179;-69
2023/07/14 10:01:05;;;;;;;10.57;9.55;;;;;;;28.79;52.12;95037.66;6100036;23;20183;-69
2023/07/14 10:03:42;;;;;;;14.15;10.43;;;;;;;28.84;53.80;95027.72;6098983;23;20177;-69
2023/07/14 10:06:17;;;;;;;9.98;8.98;;;;;;;28.89;51.60;95018.56;6100030;23;20184;-69
2023/07/14 10:08:48;;;;;;;10.73;9.63;;;;;;;28.97;51.77;95016.97;6109498;23;20186;-69
2023/07/14 10:11:25;;;;;;;12.30;9.10;;;;;;;29.07;51.46;95019.84;6098991;23;20203;-69
2023/07/14 10:13:59;;;;;;;10.70;8.95;;;;;;;29.11;48.59;95020.47;6099315;23;20208;-69
2023/07/14 10:16:29;;;;;;;13.25;8.90;;;;;;;29.16;49.42;95017.78;6098525;23;20172;-69
2023/07/14 10:19:00;;;;;;;10.23;8.85;;;;;;;29.25;47.71;95008.44;6109585;23;20157;-69
2023/07/14 10:21:28;;;;;;;10.68;9.32;;;;;;;29.35;49.11;95001.50;6099466;23;20160;-69
2023/07/14 10:24:00;;;;;;;9.68;8.60;;;;;;;29.35;47.04;95004.31;6123603;23;20176;-69
2023/07/14 10:27:05;;;;;;;11.60;8.70;;;;;;;29.41;51.04;95002.41;6109771;23;20601;-69
2023/07/14 10:30:14;;;;;;;12.27;9.25;;;;;;;29.45;46.80;95002.22;6099795;23;20232;-69
2023/07/14 10:33:18;;;;;;;11.57;9.30;;;;;;;29.44;46.27;95000.66;6098839;23;20184;-69
2023/07/14 10:36:24;;;;;;;10.38;8.88;;;;;;;29.47;47.08;94999.72;6100133;23;20171;-69
2023/07/14 10:39:28;;;;;;;9.98;8.27;;;;;;;29.54;48.13;94984.38;6099868;23;20191;-69
2023/07/14 10:42:33;;;;;;;10.88;8.35;;;;;;;29.65;47.35;94993.19;6099680;23;20175;-69
2023/07/14 10:45:39;;;;;;;10.05;8.73;;;;;;;29.78;47.02;94988.09;6099754;23;20172;-69
2023/07/14 10:48:44;;;;;;;12.52;8.93;;;;;;;29.81;46.47;94987.09;6099789;23;20175;-69
2023/07/14 10:51:53;;;;;;;12.35;8.32;;;;;;;29.86;45.23;94985.69;6099629;23;20164;-69
2023/07/14 10:54:59;;;;;;;10.20;9.20;;;;;;;29.97;47.01;94980.25;6099954;23;20164;-69
2023/07/14 10:58:05;;;;;;;10.68;9.15;;;;;;;30.03;45.62;94988.88;6098562;23;20164;-69
2023/07/14 11:01:14;;;;;;;12.27;8.85;;;;;;;30.11;45.32;94979.53;6098821;23;20203;-69
2023/07/14 11:04:19;;;;;;;11.45;9.48;;;;;;;30.21;46.05;94974.59;6098576;23;20180;-69
2023/07/14 11:07:24;;;;;;;10.32;8.68;;;;;;;30.21;44.26;94972.56;6099604;23;20251;-69
2023/07/14 11:10:30;;;;;;;11.70;8.77;;;;;;;30.26;46.64;94978.84;6109626;23;20250;-69
2023/07/14 11:13:38;;;;;;;11.13;9.95;;;;;;;30.32;43.40;94976.88;6108954;23;20176;-69
2023/07/14 11:16:44;;;;;;;10.00;8.98;;;;;;;30.35;44.73;94971.00;6109358;23;20223;-69
2023/07/14 11:19:50;;;;;;;11.40;9.05;;;;;;;30.39;43.33;94965.13;6098092;23;20180;-69
2023/07/14 11:22:55;;;;;;;11.15;9.32;;;;;;;30.43;45.03;94968.56;6098850;23;20207;-69
2023/07/14 11:25:33;;;;;;;12.18;8.90;;;;;;;30.50;42.67;94967.41;6098399;23;20204;-69
2023/07/14 11:28:03;;;;;;;12.20;9.45;;;;;;;30.44;44.66;94968.09;6098364;23;20220;-69
2023/07/14 11:30:36;;;;;;;11.55;9.82;;;;;;;30.36;43.29;94963.28;6098980;23;20236;-69
2023/07/14 11:33:07;;;;;;;12.60;9.35;;;;;;;30.33;44.61;94969.94;6099637;23;20175;-69
2023/07/14 11:35:36;;;;;;;10.73;9.02;;;;;;;30.39;42.83;94968.78;6099052;23;20440;-69
2023/07/14 11:38:21;;;;;;;10.60;8.63;;;;;;;30.47;43.05;94966.34;6109266;23;20188;-69
2023/07/14 11:40:52;;;;;;;9.65;8.45;;;;;;;30.49;42.20;94960.94;6099457;23;20171;-69
2023/07/14 11:43:21;;;;;;;10.45;9.05;;;;;;;30.53;42.03;94952.22;6122675;23;20180;-69
2023/07/14 11:45:56;;;;;;;11.55;9.25;;;;;;;30.69;43.41;94960.31;6099560;23;20173;-69
2023/07/14 11:48:26;;;;;;;10.02;8.68;;;;;;;30.81;42.45;94955.66;6099510;23;20247;-69
2023/07/14 11:51:14;;;;;;;10.90;8.10;;;;;;;30.87;41.01;94959.41;6109180;23;20252;-69
2023/07/14 11:54:03;;;;;;;11.77;8.32;;;;;;;30.95;41.12;94959.78;6099168;23;20180;-69